Terminal Aerodrome Forecast
Issued by NWS Sterling, VA

Current Version | Previous Version | Graphics & Text | Print | Product List | Glossary On
Versions: 1 2 3 4 5 6 7 8 9 10 11 12 13 14 15 16 17 18 19 20 21 22 23 24 25 26 27
894
FTUS41 KLWX 182047 AAA
TAFDCA
TAF AMD
KDCA 182047Z 1821/1924 26004KT P6SM FEW045
     FM182300 16004KT P6SM FEW250
     FM190900 17006KT P6SM SCT045
     FM191100 17005KT P6SM BKN035
     FM191700 19007KT P6SM BKN015
     FM192000 19007KT P6SM OVC060=

USA.gov is the U.S. government's official web portal to all federal, state and local government web resources and services.